createdAt,value
2018-07-10T00:00:30.307Z,10.67
2018-07-10T00:03:19.134Z,3.00
2018-07-10T00:06:56.450Z,2.87
2018-07-10T00:11:43.145Z,3.13
2018-07-10T00:14:12.785Z,2.73
2018-07-10T00:16:41.927Z,3.00
2018-07-10T00:19:10.802Z,3.33
2018-07-10T00:21:40.343Z,3.00
2018-07-10T00:24:09.127Z,2.77
2018-07-10T00:26:38.514Z,3.57
2018-07-10T00:29:07.298Z,3.20
2018-07-10T00:31:36.200Z,2.80
2018-07-10T00:34:05.000Z,3.00
2018-07-10T00:36:33.759Z,3.00
2018-07-10T00:39:05.246Z,2.70
2018-07-10T00:41:38.308Z,2.50
2018-07-10T00:44:07.852Z,2.80
2018-07-10T00:46:38.388Z,2.73
2018-07-10T00:49:07.913Z,2.53
2018-07-10T00:51:37.624Z,2.97
2018-07-10T00:54:06.543Z,3.00
2018-07-10T00:56:35.957Z,2.70
2018-07-10T00:59:05.360Z,3.07
2018-07-10T01:01:34.807Z,3.13
2018-07-10T01:04:03.805Z,2.70
2018-07-10T01:06:32.780Z,2.70
2018-07-10T01:09:01.818Z,2.73
2018-07-10T01:11:31.139Z,2.33
2018-07-10T01:14:00.194Z,2.80
2018-07-10T01:16:36.875Z,2.60
2018-07-10T01:19:13.827Z,2.67
2018-07-10T01:21:43.574Z,2.63
2018-07-10T01:24:12.541Z,2.57
2018-07-10T01:26:42.552Z,2.60
2018-07-10T01:29:22.043Z,2.53
2018-07-10T01:31:55.236Z,2.30
2018-07-10T01:34:25.226Z,2.87
2018-07-10T01:36:55.452Z,2.80
2018-07-10T01:39:24.431Z,2.33
2018-07-10T01:41:53.453Z,2.53
2018-07-10T01:44:22.802Z,2.57
2018-07-10T01:46:51.776Z,2.50
2018-07-10T01:49:20.935Z,2.50
2018-07-10T01:51:50.203Z,2.80
2018-07-10T01:54:19.134Z,2.30
2018-07-10T01:56:48.349Z,2.77
2018-07-10T01:59:18.145Z,2.67
2018-07-10T02:01:47.153Z,2.80
2018-07-10T02:04:16.883Z,2.33
2018-07-10T02:06:46.145Z,2.80
2018-07-10T02:09:16.054Z,3.20
2018-07-10T02:11:45.008Z,2.97
2018-07-10T02:14:13.907Z,3.20
2018-07-10T02:16:43.085Z,3.10
2018-07-10T02:19:12.267Z,3.37
2018-07-10T02:21:41.776Z,3.03
2018-07-10T02:24:10.883Z,3.00
2018-07-10T02:26:40.312Z,3.03
2018-07-10T02:29:09.080Z,3.00
2018-07-10T02:31:38.512Z,2.93
2018-07-10T02:34:07.749Z,3.10
2018-07-10T02:36:36.654Z,3.60
2018-07-10T02:39:05.653Z,3.70
2018-07-10T02:41:34.920Z,3.50
2018-07-10T02:44:05.839Z,3.50
2018-07-10T02:46:38.317Z,3.37
2018-07-10T02:49:18.004Z,3.20
2018-07-10T02:52:04.190Z,3.13
2018-07-10T02:54:48.592Z,3.10
2018-07-10T02:57:17.383Z,2.77
2018-07-10T02:59:47.446Z,2.70
2018-07-10T03:02:26.762Z,2.87
2018-07-10T03:04:58.838Z,2.80
2018-07-10T03:07:28.547Z,2.57
2018-07-10T03:09:58.532Z,2.80
2018-07-10T03:12:28.711Z,2.87
2018-07-10T03:15:00.299Z,3.00
2018-07-10T03:17:29.261Z,3.07
2018-07-10T03:20:00.264Z,2.93
2018-07-10T03:22:29.001Z,3.00
2018-07-10T03:24:57.788Z,2.70
2018-07-10T03:27:26.514Z,2.57
2018-07-10T03:29:55.367Z,3.10
2018-07-10T03:32:24.323Z,3.00
2018-07-10T03:34:53.133Z,2.97
2018-07-10T03:37:22.061Z,2.70
2018-07-10T03:39:51.011Z,2.80
2018-07-10T03:42:20.087Z,3.00
2018-07-10T03:44:49.641Z,2.93
2018-07-10T03:47:20.541Z,3.33
2018-07-10T03:49:49.788Z,3.00
2018-07-10T03:52:37.855Z,3.13
2018-07-10T03:55:15.229Z,3.23
2018-07-10T03:57:44.325Z,3.23
2018-07-10T04:00:15.022Z,3.33
2018-07-10T04:02:48.207Z,3.07
2018-07-10T04:05:18.462Z,2.80
2018-07-10T04:07:48.425Z,3.10
2018-07-10T04:10:18.860Z,2.80
2018-07-10T04:12:49.679Z,2.70
2018-07-10T04:15:19.037Z,2.70
2018-07-10T04:17:58.555Z,2.87
2018-07-10T04:20:31.477Z,2.60
2018-07-10T04:23:00.680Z,2.40
2018-07-10T04:25:34.725Z,2.93
2018-07-10T04:28:08.472Z,3.40
2018-07-10T04:30:46.551Z,2.63
2018-07-10T04:33:15.875Z,3.30
2018-07-10T04:35:44.938Z,4.17
2018-07-10T04:38:14.613Z,3.40
2018-07-10T04:40:43.883Z,3.43
2018-07-10T04:43:17.569Z,3.20
2018-07-10T04:45:48.058Z,3.10
2018-07-10T04:48:36.220Z,3.43
2018-07-10T04:51:44.149Z,3.10
2018-07-10T04:55:25.091Z,3.57
2018-07-10T04:57:59.068Z,2.83
2018-07-10T05:00:29.044Z,3.67
2018-07-10T05:02:59.966Z,3.80
2018-07-10T05:05:30.881Z,3.67
2018-07-10T05:08:00.669Z,3.70
2018-07-10T05:10:32.868Z,3.50
2018-07-10T05:13:04.644Z,3.00
2018-07-10T05:15:34.004Z,2.90
2018-07-10T05:18:08.913Z,3.70
2018-07-10T05:20:38.011Z,3.00
2018-07-10T05:23:07.710Z,3.37
2018-07-10T05:25:39.592Z,2.90
2018-07-10T05:28:09.029Z,3.00
2018-07-10T05:30:39.353Z,3.00
2018-07-10T05:33:09.135Z,2.83
2018-07-10T05:35:37.931Z,2.87
2018-07-10T05:38:07.423Z,3.03
2018-07-10T05:40:36.480Z,2.93
2018-07-10T05:43:12.671Z,3.20
2018-07-10T05:45:42.183Z,4.30
2018-07-10T05:48:11.448Z,3.90
2018-07-10T05:50:41.344Z,4.23
2018-07-10T05:53:11.936Z,4.20
2018-07-10T05:55:45.959Z,3.97
2018-07-10T05:58:15.331Z,4.47
2018-07-10T06:00:44.551Z,4.40
2018-07-10T06:03:13.729Z,5.30
2018-07-10T06:05:42.857Z,5.00
2018-07-10T06:08:14.875Z,5.33
2018-07-10T06:10:44.306Z,4.57
2018-07-10T06:13:13.485Z,17.90
2018-07-10T06:15:42.431Z,4.40
2018-07-10T06:18:11.525Z,4.27
2018-07-10T06:20:42.452Z,4.10
2018-07-10T06:23:11.332Z,4.27
2018-07-10T06:25:41.041Z,3.60
2018-07-10T06:28:16.024Z,4.13
2018-07-10T06:30:45.249Z,4.60
2018-07-10T06:33:25.495Z,4.23
2018-07-10T06:36:29.210Z,3.70
2018-07-10T06:39:06.211Z,5.60
2018-07-10T06:41:35.119Z,12.70
2018-07-10T06:44:04.435Z,10.83
2018-07-10T06:46:39.326Z,5.40
2018-07-10T06:49:43.194Z,3.87
2018-07-10T06:52:16.974Z,4.23
2018-07-10T06:54:58.260Z,4.67
2018-07-10T06:57:32.176Z,4.50
2018-07-10T07:00:05.944Z,4.67
2018-07-10T07:02:36.680Z,5.97
2018-07-10T07:05:05.939Z,5.20
2018-07-10T07:07:36.133Z,5.13
2018-07-10T07:10:06.835Z,7.17
2018-07-10T07:12:36.640Z,6.93
2018-07-10T07:15:08.644Z,5.47
2018-07-10T07:17:41.399Z,5.93
2018-07-10T07:20:10.348Z,5.67
2018-07-10T07:22:39.265Z,5.90
2018-07-10T07:25:08.804Z,5.70
2018-07-10T07:27:38.332Z,6.40
2018-07-10T07:30:07.628Z,5.93
2018-07-10T07:32:36.875Z,5.80
2018-07-10T07:35:05.987Z,5.43
2018-07-10T07:37:37.902Z,6.33
2018-07-10T07:40:06.836Z,6.40
2018-07-10T07:42:35.731Z,6.53
2018-07-10T07:45:04.940Z,6.40
2018-07-10T07:47:33.858Z,6.60
2018-07-10T07:50:02.588Z,7.00
2018-07-10T07:52:32.391Z,6.60
2018-07-10T07:55:02.564Z,6.63
2018-07-10T07:57:31.292Z,6.07
2018-07-10T08:00:00.131Z,6.37
2018-07-10T08:02:28.990Z,7.53
2018-07-10T08:04:58.071Z,7.57
2018-07-10T08:07:27.573Z,7.60
2018-07-10T08:09:57.502Z,7.30
2018-07-10T08:12:29.568Z,6.73
2018-07-10T08:15:00.168Z,7.80
2018-07-10T08:17:29.608Z,13.80
2018-07-10T08:19:59.490Z,8.00
2018-07-10T08:22:28.850Z,7.70
2018-07-10T08:24:57.696Z,8.20
2018-07-10T08:27:27.227Z,8.93
2018-07-10T08:29:57.107Z,8.43
2018-07-10T08:32:27.938Z,8.73
2018-07-10T08:34:56.872Z,9.67
2018-07-10T08:37:25.656Z,8.97
2018-07-10T08:39:54.703Z,8.60
2018-07-10T08:42:23.623Z,8.93
2018-07-10T08:44:52.407Z,9.77
2018-07-10T08:47:21.371Z,9.70
2018-07-10T08:49:50.153Z,9.23
2018-07-10T08:52:20.341Z,9.33
2018-07-10T08:54:49.323Z,8.00
2018-07-10T08:57:18.385Z,8.00
2018-07-10T08:59:48.175Z,9.10
2018-07-10T09:02:17.020Z,8.47
2018-07-10T09:04:45.762Z,9.40
2018-07-10T09:07:14.677Z,9.80
2018-07-10T09:09:43.535Z,10.47
2018-07-10T09:12:13.047Z,10.73
2018-07-10T09:14:42.045Z,8.73
2018-07-10T09:17:11.090Z,9.53
2018-07-10T09:19:40.650Z,11.60
2018-07-10T09:22:12.042Z,13.07
2018-07-10T09:24:57.439Z,13.97
2018-07-10T09:27:26.610Z,14.00
2018-07-10T09:29:55.760Z,14.63
2018-07-10T09:32:29.790Z,14.17
2018-07-10T09:34:59.556Z,14.37
2018-07-10T09:37:35.817Z,14.50
2018-07-10T09:40:09.927Z,14.70
2018-07-10T09:42:44.214Z,14.60
2018-07-10T09:45:13.421Z,13.70
2018-07-10T09:47:43.567Z,14.40
2018-07-10T09:50:13.336Z,13.87
2018-07-10T09:52:42.642Z,14.37
2018-07-10T09:55:12.059Z,14.23
2018-07-10T09:57:43.143Z,13.73
2018-07-10T10:00:12.143Z,13.87
2018-07-10T10:02:42.915Z,13.03
2018-07-10T10:05:12.133Z,12.47
2018-07-10T10:07:41.779Z,12.80
2018-07-10T10:10:11.254Z,13.50
2018-07-10T10:12:40.291Z,13.20
2018-07-10T10:15:09.395Z,11.70
2018-07-10T10:17:38.533Z,11.70
2018-07-10T10:20:08.606Z,11.40
2018-07-10T10:22:38.015Z,11.43
2018-07-10T10:25:07.178Z,9.83
2018-07-10T10:27:36.619Z,9.10
2018-07-10T10:30:05.722Z,9.10
2018-07-10T10:32:34.829Z,8.90
2018-07-10T10:35:04.084Z,10.30
2018-07-10T10:37:33.672Z,9.57
2018-07-10T10:40:02.834Z,10.20
2018-07-10T10:42:32.220Z,10.07
2018-07-10T10:45:01.869Z,10.20
2018-07-10T10:47:31.890Z,10.40
2018-07-10T10:50:02.094Z,9.43
2018-07-10T10:52:32.054Z,9.00
2018-07-10T10:55:01.172Z,8.83
2018-07-10T10:57:33.417Z,9.33
2018-07-10T11:00:02.798Z,9.00
2018-07-10T11:02:32.265Z,8.80
2018-07-10T11:05:02.419Z,9.77
2018-07-10T11:07:32.477Z,8.57
2018-07-10T11:10:01.791Z,8.40
2018-07-10T11:12:32.252Z,8.57
2018-07-10T11:15:02.657Z,8.60
2018-07-10T11:17:41.073Z,8.07
2018-07-10T11:20:25.821Z,7.73
2018-07-10T11:23:05.265Z,7.47
2018-07-10T11:25:41.686Z,8.40
2018-07-10T11:28:13.144Z,7.97
2018-07-10T11:30:41.964Z,8.17
2018-07-10T11:33:11.574Z,8.70
2018-07-10T11:35:40.493Z,8.13
2018-07-10T11:38:12.425Z,8.47
2018-07-10T11:40:44.609Z,8.40
2018-07-10T11:43:13.896Z,7.63
2018-07-10T11:45:43.071Z,8.17
2018-07-10T11:48:12.211Z,7.70
2018-07-10T11:50:41.058Z,7.87
2018-07-10T11:53:09.806Z,7.53
2018-07-10T11:55:39.445Z,6.90
2018-07-10T11:58:09.747Z,6.90
2018-07-10T12:00:38.762Z,6.70
2018-07-10T12:03:08.117Z,6.57
2018-07-10T12:05:39.864Z,6.57
2018-07-10T12:08:09.018Z,6.93
2018-07-10T12:10:38.952Z,6.40
2018-07-10T12:13:08.878Z,6.70
2018-07-10T12:15:38.078Z,6.00
2018-07-10T12:18:07.720Z,5.63
2018-07-10T12:20:39.916Z,6.47
2018-07-10T12:23:09.753Z,5.53
2018-07-10T12:25:46.035Z,4.53
2018-07-10T12:28:15.755Z,4.97
2018-07-10T12:30:45.150Z,5.25
2018-07-10T12:33:14.029Z,5.25
2018-07-10T12:35:42.835Z,5.45
2018-07-10T12:38:12.528Z,6.12
2018-07-10T12:40:41.465Z,6.42
2018-07-10T12:43:10.730Z,6.25
2018-07-10T12:45:40.395Z,5.40
2018-07-10T12:48:09.423Z,5.35
2018-07-10T12:50:38.541Z,5.25
2018-07-10T12:53:07.328Z,5.37
2018-07-10T12:55:36.990Z,6.05
2018-07-10T12:58:06.037Z,5.50
2018-07-10T13:00:37.325Z,5.42
2018-07-10T13:03:07.764Z,4.92
2018-07-10T13:05:44.799Z,4.65
2018-07-10T13:08:13.884Z,5.10
2018-07-10T13:10:43.001Z,4.95
2018-07-10T13:13:12.589Z,5.42
2018-07-10T13:15:41.796Z,5.30
2018-07-10T13:18:11.086Z,5.55
2018-07-10T13:20:40.332Z,4.55
2018-07-10T13:23:10.718Z,4.53
2018-07-10T13:25:39.828Z,4.33
2018-07-10T13:28:08.572Z,4.25
2018-07-10T13:30:37.430Z,4.40
2018-07-10T13:33:13.020Z,4.58
2018-07-10T13:35:41.961Z,4.50
2018-07-10T13:38:10.879Z,4.10
2018-07-10T13:40:39.971Z,4.47
2018-07-10T13:43:08.803Z,4.95
2018-07-10T13:45:37.529Z,4.72
2018-07-10T13:48:06.381Z,4.35
2018-07-10T13:50:35.497Z,3.87
2018-07-10T13:53:04.753Z,4.33
2018-07-10T13:55:33.576Z,4.37
2018-07-10T13:58:07.380Z,3.80
2018-07-10T14:00:39.200Z,4.00
2018-07-10T14:03:08.006Z,3.58
2018-07-10T14:05:36.847Z,4.47
2018-07-10T14:08:05.770Z,4.40
2018-07-10T14:10:36.768Z,4.08
2018-07-10T14:13:06.309Z,4.10
2018-07-10T14:15:35.815Z,3.47
2018-07-10T14:18:05.218Z,3.75
2018-07-10T14:20:43.159Z,3.50
2018-07-10T14:23:12.512Z,3.58
2018-07-10T14:25:41.288Z,3.65
2018-07-10T14:28:10.065Z,3.77
2018-07-10T14:30:39.047Z,3.20
2018-07-10T14:33:07.898Z,3.25
2018-07-10T14:35:36.864Z,3.50
2018-07-10T14:38:06.926Z,2.90
2018-07-10T14:40:37.461Z,2.67
2018-07-10T14:43:06.531Z,3.12
2018-07-10T14:45:37.068Z,2.37
2018-07-10T14:48:07.301Z,2.95
2018-07-10T14:50:36.488Z,2.60
2018-07-10T14:53:05.688Z,3.00
2018-07-10T14:55:34.760Z,2.87
2018-07-10T14:58:03.847Z,2.50
2018-07-10T15:00:32.788Z,2.72
2018-07-10T15:03:01.627Z,2.60
2018-07-10T15:05:30.552Z,2.52
2018-07-10T15:07:59.456Z,2.40
2018-07-10T15:10:28.120Z,2.08
2018-07-10T15:12:56.800Z,2.83
2018-07-10T15:15:25.760Z,2.17
2018-07-10T15:17:59.537Z,1.77
2018-07-10T15:20:28.269Z,2.30
2018-07-10T15:22:58.177Z,2.22
2018-07-10T15:25:26.882Z,2.17
2018-07-10T15:27:55.654Z,2.50
2018-07-10T15:30:24.437Z,2.12
2018-07-10T15:32:53.203Z,2.10
2018-07-10T15:35:21.949Z,1.82
2018-07-10T15:37:50.762Z,1.90
2018-07-10T15:40:19.887Z,2.10
2018-07-10T15:42:48.879Z,1.95
2018-07-10T15:45:17.575Z,2.30
2018-07-10T15:47:46.953Z,2.17
2018-07-10T15:50:16.755Z,2.02
2018-07-10T15:52:45.646Z,2.02
2018-07-10T15:55:14.297Z,1.72
2018-07-10T15:57:43.199Z,2.10
2018-07-10T16:00:12.161Z,1.95
2018-07-10T16:02:40.952Z,2.10
2018-07-10T16:05:09.886Z,1.90
2018-07-10T16:07:38.729Z,1.90
2018-07-10T16:10:07.676Z,1.80
2018-07-10T16:12:36.804Z,1.67
2018-07-10T16:15:05.505Z,1.60
2018-07-10T16:17:34.388Z,1.70
2018-07-10T16:20:06.691Z,1.80
2018-07-10T16:22:38.363Z,1.70
2018-07-10T16:25:12.417Z,1.95
2018-07-10T16:27:44.217Z,1.67
2018-07-10T16:30:15.329Z,1.98
2018-07-10T16:32:44.159Z,1.67
2018-07-10T16:35:13.107Z,1.92
2018-07-10T16:43:40.557Z,1.95
2018-07-10T16:46:09.451Z,1.80
2018-07-10T16:48:47.501Z,2.00
2018-07-10T16:51:29.221Z,1.95
2018-07-10T16:53:59.871Z,1.98
2018-07-10T16:56:28.995Z,1.90
2018-07-10T16:58:58.335Z,1.77
2018-07-10T17:01:28.684Z,2.20
2018-07-10T17:03:59.942Z,2.10
2018-07-10T17:06:28.728Z,2.37
2018-07-10T17:08:57.522Z,2.20
2018-07-10T17:11:26.235Z,2.20
2018-07-10T17:13:55.101Z,2.10
2018-07-10T17:16:28.574Z,2.35
2018-07-10T17:18:57.956Z,2.47
2018-07-10T17:21:27.962Z,2.00
2018-07-10T17:24:00.182Z,2.50
2018-07-10T17:26:29.385Z,2.27
2018-07-10T17:28:58.396Z,2.42
2018-07-10T17:31:27.389Z,2.60
2018-07-10T17:33:56.164Z,4.70
2018-07-10T17:36:24.932Z,2.17
2018-07-10T17:38:53.815Z,2.20
2018-07-10T17:41:23.485Z,2.02
2018-07-10T17:43:52.400Z,2.40
2018-07-10T17:46:21.194Z,2.25
2018-07-10T17:48:50.194Z,2.77
2018-07-10T17:51:19.104Z,3.22
2018-07-10T17:53:48.939Z,6.15
2018-07-10T17:56:17.744Z,2.33
2018-07-10T17:58:46.568Z,2.10
2018-07-10T18:01:15.342Z,2.20
2018-07-10T18:03:44.215Z,2.20
2018-07-10T18:06:13.040Z,2.10
2018-07-10T18:08:41.741Z,2.15
2018-07-10T18:11:10.722Z,2.37
2018-07-10T18:13:39.557Z,2.25
2018-07-10T18:16:08.442Z,2.85
2018-07-10T18:18:37.361Z,2.75
2018-07-10T18:21:06.335Z,2.90
2018-07-10T18:23:35.179Z,2.62
2018-07-10T18:26:04.190Z,2.80
2018-07-10T18:28:33.013Z,3.27
2018-07-10T18:31:02.057Z,3.00
2018-07-10T18:33:30.849Z,2.73
2018-07-10T18:35:59.680Z,3.10
2018-07-10T18:38:28.727Z,2.70
2018-07-10T18:40:57.654Z,2.83
2018-07-10T18:43:26.511Z,3.20
2018-07-10T18:45:55.287Z,3.07
2018-07-10T18:48:26.807Z,3.03
2018-07-10T18:50:56.290Z,3.43
2018-07-10T18:53:25.117Z,3.10
2018-07-10T18:55:54.240Z,3.40
2018-07-10T18:58:32.547Z,2.97
2018-07-10T19:01:05.825Z,3.53
2018-07-10T19:03:36.268Z,3.10
2018-07-10T19:06:08.885Z,2.93
2018-07-10T19:08:39.853Z,3.00
2018-07-10T19:11:09.421Z,2.90
2018-07-10T19:13:38.399Z,3.07
2018-07-10T19:16:07.197Z,4.20
2018-07-10T19:18:36.383Z,4.63
2018-07-10T19:21:16.659Z,3.57
2018-07-10T19:23:47.754Z,3.37
2018-07-10T19:26:22.353Z,3.10
2018-07-10T19:28:52.726Z,3.60
2018-07-10T19:31:26.180Z,3.77
2018-07-10T19:33:56.485Z,3.67
2018-07-10T19:36:25.869Z,3.53
2018-07-10T19:38:54.643Z,3.20
2018-07-10T19:41:23.872Z,3.53
2018-07-10T19:43:53.283Z,3.27
2018-07-10T19:46:22.687Z,2.80
2018-07-10T19:48:53.747Z,2.90
2018-07-10T19:51:25.202Z,2.67
2018-07-10T19:53:56.845Z,2.93
2018-07-10T19:56:25.816Z,2.93
2018-07-10T19:58:54.729Z,2.93
2018-07-10T20:01:37.137Z,3.30
2018-07-10T20:04:10.409Z,3.77
2018-07-10T20:07:52.594Z,3.40
2018-07-10T20:10:29.956Z,3.00
2018-07-10T20:13:06.077Z,3.60
2018-07-10T20:15:43.403Z,3.20
2018-07-10T20:18:35.856Z,2.80
2018-07-10T20:21:14.759Z,3.13
2018-07-10T20:23:52.360Z,2.70
2018-07-10T20:28:38.807Z,2.97
2018-07-10T20:31:10.681Z,2.73
2018-07-10T20:33:49.375Z,2.37
2018-07-10T20:36:23.438Z,2.90
2018-07-10T20:38:52.845Z,3.20
2018-07-10T20:41:24.499Z,2.90
2018-07-10T20:43:53.355Z,2.87
2018-07-10T20:46:24.843Z,3.00
2018-07-10T20:48:57.580Z,3.03
2018-07-10T20:51:31.866Z,2.70
2018-07-10T20:54:07.276Z,2.50
2018-07-10T20:58:49.191Z,2.97
2018-07-10T21:01:17.994Z,2.50
2018-07-10T21:03:52.002Z,2.83
2018-07-10T21:06:43.990Z,2.90
2018-07-10T21:09:14.935Z,3.23
2018-07-10T21:12:04.166Z,2.60
2018-07-10T21:14:40.623Z,2.87
2018-07-10T21:17:14.366Z,3.00
2018-07-10T21:19:53.018Z,5.83
2018-07-10T21:23:06.505Z,2.90
2018-07-10T21:25:57.843Z,3.30
2018-07-10T21:28:34.765Z,3.17
2018-07-10T21:31:12.681Z,3.23
2018-07-10T21:33:47.632Z,2.93
2018-07-10T21:36:20.352Z,3.60
2018-07-10T21:39:00.913Z,3.20
2018-07-10T21:41:46.249Z,2.57
2018-07-10T21:44:38.590Z,2.97
2018-07-10T21:47:57.435Z,2.70
2018-07-10T21:50:34.111Z,3.20
2018-07-10T21:53:05.253Z,3.07
2018-07-10T21:55:34.054Z,2.77
2018-07-10T21:58:03.967Z,2.70
2018-07-10T22:00:50.728Z,2.87
2018-07-10T22:03:19.502Z,3.10
2018-07-10T22:05:48.292Z,3.03
2018-07-10T22:08:17.525Z,3.00
2018-07-10T22:10:46.301Z,2.70
2018-07-10T22:13:15.080Z,3.00
2018-07-10T22:15:44.074Z,3.20
2018-07-10T22:18:12.985Z,3.10
2018-07-10T22:20:46.408Z,2.77
2018-07-10T22:23:15.340Z,2.10
2018-07-10T22:25:44.380Z,2.80
2018-07-10T22:28:13.554Z,2.50
2018-07-10T22:30:51.383Z,2.63
2018-07-10T22:33:21.409Z,2.50
2018-07-10T22:35:50.621Z,2.43
2018-07-10T22:38:20.968Z,2.83
2018-07-10T22:40:51.106Z,2.60
2018-07-10T22:43:19.793Z,2.50
2018-07-10T22:45:49.156Z,2.10
2018-07-10T22:48:18.087Z,2.40
2018-07-10T22:50:47.133Z,2.40
2018-07-10T22:53:15.910Z,2.30
2018-07-10T22:55:44.823Z,2.10
2018-07-10T22:58:13.681Z,2.33
2018-07-10T23:00:42.393Z,2.33
2018-07-10T23:03:20.191Z,2.23
2018-07-10T23:05:49.901Z,2.43
2018-07-10T23:08:20.800Z,2.40
2018-07-10T23:10:50.501Z,2.20
2018-07-10T23:13:19.710Z,2.07
2018-07-10T23:15:49.202Z,2.23
2018-07-10T23:18:19.603Z,2.17
2018-07-10T23:20:48.456Z,2.20
2018-07-10T23:23:17.692Z,2.20
2018-07-10T23:25:46.501Z,2.30
2018-07-10T23:28:15.425Z,2.30
2018-07-10T23:30:44.730Z,2.40
2018-07-10T23:33:15.164Z,2.60
2018-07-10T23:35:46.093Z,2.20
2018-07-10T23:38:28.752Z,2.23
2018-07-10T23:41:00.302Z,2.20
2018-07-10T23:43:34.584Z,2.47
2018-07-10T23:46:05.696Z,2.60
2018-07-10T23:48:34.766Z,2.43
2018-07-10T23:51:03.545Z,2.40
2018-07-10T23:53:54.688Z,2.20
2018-07-10T23:56:23.807Z,2.90
2018-07-10T23:58:52.591Z,2.83
